Time;durP1;ratioP1;P1;durP2;ratioP2;P2;SDS_P1;SDS_P2;PMS_P1;PMS_P2;Temp;Humidity;BMP_temperature;BMP_pressure;BME280_temperature;BME280_humidity;BME280_pressure;Samples;Min_cycle;Max_cycle;Signal;HPM_P1;HPM_P2
2022/01/11 00:00:48;;;;;;;30.42;19.23;;;;;;;;;;10353410;28;20162;-55
2022/01/11 00:05:52;;;;;;;29.92;18.83;;;;;;;;;;10353390;28;20466;-55
2022/01/11 00:10:54;;;;;;;24.83;16.27;;;;;;;;;;10352114;28;20105;-52
2022/01/11 00:15:53;;;;;;;24.85;17.65;;;;;;;;;;10349475;28;20498;-56
2022/01/11 00:20:51;;;;;;;26.02;17.02;;;;;;;;;;10350884;28;20467;-55
2022/01/11 00:25:50;;;;;;;20.83;14.23;;;;;;;;;;10350192;28;20086;-56
2022/01/11 00:30:50;;;;;;;23.02;14.70;;;;;;;;;;10357659;28;20500;-56
2022/01/11 00:35:59;;;;;;;21.08;13.75;;;;;;;;;;10339885;28;20086;-56
2022/01/11 00:40:58;;;;;;;22.85;16.38;;;;;;;;;;10358383;28;20083;-56
2022/01/11 00:45:58;;;;;;;22.80;14.63;;;;;;;;;;10338340;28;20068;-57
2022/01/11 00:50:59;;;;;;;20.88;14.93;;;;;;;;;;10338848;28;20510;-58
2022/01/11 00:55:58;;;;;;;21.35;15.43;;;;;;;;;;10357916;28;20067;-57
2022/01/11 01:00:57;;;;;;;20.45;15.10;;;;;;;;;;10358566;28;20102;-54
2022/01/11 01:05:56;;;;;;;24.58;18.88;;;;;;;;;;10360264;28;20075;-53
2022/01/11 01:10:57;;;;;;;21.45;17.00;;;;;;;;;;10332363;28;20416;-57
2022/01/11 01:16:01;;;;;;;21.65;16.60;;;;;;;;;;10339491;28;20141;-57
2022/01/11 01:21:10;;;;;;;22.80;16.52;;;;;;;;;;10338910;28;20082;-56
2022/01/11 01:26:09;;;;;;;21.20;15.23;;;;;;;;;;10357857;28;20075;-57
2022/01/11 01:31:08;;;;;;;22.13;16.42;;;;;;;;;;10338624;28;20080;-56
2022/01/11 01:36:11;;;;;;;21.13;18.38;;;;;;;;;;10338739;28;20044;-56
2022/01/11 01:41:14;;;;;;;21.92;15.80;;;;;;;;;;10350543;28;20077;-58
2022/01/11 01:46:15;;;;;;;24.48;16.25;;;;;;;;;;10351401;28;20129;-57
2022/01/11 01:51:14;;;;;;;22.80;15.45;;;;;;;;;;10351741;28;20849;-58
2022/01/11 01:56:12;;;;;;;19.00;14.93;;;;;;;;;;10356307;28;20106;-57
2022/01/11 02:01:13;;;;;;;23.15;17.58;;;;;;;;;;10338132;28;20071;-57
2022/01/11 02:06:14;;;;;;;24.33;17.20;;;;;;;;;;10350993;28;20087;-55
2022/01/11 02:11:14;;;;;;;20.35;16.52;;;;;;;;;;10350393;28;20075;-57
2022/01/11 02:16:13;;;;;;;22.15;16.95;;;;;;;;;;10331175;28;20052;-57
2022/01/11 02:21:13;;;;;;;24.17;17.45;;;;;;;;;;10355910;28;20070;-57
2022/01/11 02:26:11;;;;;;;27.48;20.15;;;;;;;;;;10336775;28;20040;-57
2022/01/11 02:31:13;;;;;;;24.33;18.45;;;;;;;;;;10331704;28;20520;-53
2022/01/11 02:36:18;;;;;;;25.02;17.17;;;;;;;;;;10337576;28;20094;-57
2022/01/11 02:41:17;;;;;;;25.00;18.02;;;;;;;;;;10335408;28;20064;-55
2022/01/11 02:46:16;;;;;;;25.42;16.67;;;;;;;;;;10335656;28;20420;-57
2022/01/11 02:51:17;;;;;;;26.77;18.80;;;;;;;;;;10335294;28;20372;-57
2022/01/11 02:56:19;;;;;;;27.73;19.60;;;;;;;;;;10329168;28;20083;-56
2022/01/11 03:01:18;;;;;;;25.20;18.80;;;;;;;;;;10335274;28;20487;-56
2022/01/11 03:06:19;;;;;;;27.85;18.42;;;;;;;;;;10335906;28;20071;-55
2022/01/11 03:11:18;;;;;;;22.92;17.20;;;;;;;;;;10337119;28;20069;-57
2022/01/11 03:16:18;;;;;;;23.88;18.45;;;;;;;;;;10333853;28;20093;-54
2022/01/11 03:21:17;;;;;;;25.23;19.70;;;;;;;;;;10334157;28;20071;-58
2022/01/11 03:26:17;;;;;;;28.33;19.85;;;;;;;;;;10352355;28;20071;-54
2022/01/11 03:31:16;;;;;;;25.85;18.77;;;;;;;;;;10331986;28;20072;-55
2022/01/11 03:36:19;;;;;;;27.60;19.48;;;;;;;;;;10333829;28;20114;-58
2022/01/11 03:41:20;;;;;;;26.35;20.13;;;;;;;;;;10334386;28;20074;-53
2022/01/11 03:46:18;;;;;;;29.00;19.30;;;;;;;;;;10351784;28;20071;-57
2022/01/11 03:51:18;;;;;;;27.73;19.05;;;;;;;;;;10333180;28;20071;-56
2022/01/11 03:56:26;;;;;;;36.75;23.80;;;;;;;;;;10331392;28;20424;-56
2022/01/11 04:01:47;;;;;;;35.05;22.50;;;;;;;;;;10352304;28;20528;-56
2022/01/11 04:06:46;;;;;;;27.73;19.58;;;;;;;;;;10342008;28;20068;-55
2022/01/11 04:11:46;;;;;;;29.92;19.52;;;;;;;;;;10358755;28;20080;-55
2022/01/11 04:16:46;;;;;;;66.55;39.22;;;;;;;;;;10342558;28;20476;-57
2022/01/11 04:21:45;;;;;;;41.35;23.50;;;;;;;;;;10342053;28;20531;-56
2022/01/11 04:26:43;;;;;;;33.95;24.98;;;;;;;;;;10342507;28;20571;-55
2022/01/11 04:31:43;;;;;;;26.92;17.83;;;;;;;;;;10357077;28;20513;-57
2022/01/11 04:36:48;;;;;;;26.20;18.33;;;;;;;;;;10358884;28;20157;-58
2022/01/11 04:41:46;;;;;;;33.13;18.38;;;;;;;;;;10358239;28;20071;-57
2022/01/11 04:46:46;;;;;;;28.35;17.02;;;;;;;;;;10359428;28;20070;-55
2022/01/11 04:51:46;;;;;;;33.05;21.60;;;;;;;;;;10314362;28;20087;-56
2022/01/11 04:56:44;;;;;;;24.45;18.75;;;;;;;;;;10318209;28;20087;-57
2022/01/11 05:01:44;;;;;;;27.20;19.92;;;;;;;;;;10305944;28;20077;-55
2022/01/11 05:06:44;;;;;;;23.35;16.48;;;;;;;;;;10292892;28;20048;-56
2022/01/11 05:11:43;;;;;;;30.08;22.15;;;;;;;;;;10307114;28;20048;-57
2022/01/11 05:16:41;;;;;;;41.28;27.75;;;;;;;;;;10280547;28;20072;-55
2022/01/11 05:21:40;;;;;;;24.30;16.33;;;;;;;;;;10290898;28;20072;-58
2022/01/11 05:26:40;;;;;;;23.30;15.70;;;;;;;;;;10319442;28;20060;-56
2022/01/11 05:31:38;;;;;;;21.90;16.75;;;;;;;;;;10319916;28;20044;-58
2022/01/11 05:36:37;;;;;;;23.77;16.88;;;;;;;;;;10319255;28;20048;-58
2022/01/11 05:41:36;;;;;;;33.80;22.75;;;;;;;;;;10319244;28;20490;-57
2022/01/11 05:46:36;;;;;;;25.05;17.35;;;;;;;;;;10319110;28;20052;-58
2022/01/11 05:51:35;;;;;;;22.13;17.25;;;;;;;;;;10311131;28;20061;-57
2022/01/11 05:56:34;;;;;;;26.35;18.52;;;;;;;;;;10314538;28;20056;-59
2022/01/11 06:01:34;;;;;;;22.80;17.27;;;;;;;;;;10277445;28;20084;-53
2022/01/11 06:06:35;;;;;;;23.10;16.48;;;;;;;;;;10299820;28;20067;-55
2022/01/11 06:11:34;;;;;;;35.03;22.88;;;;;;;;;;10312110;28;20059;-57
2022/01/11 06:16:32;;;;;;;27.63;17.98;;;;;;;;;;10306819;28;20539;-54
2022/01/11 06:21:32;;;;;;;31.52;19.27;;;;;;;;;;10293314;28;20089;-57
2022/01/11 06:26:33;;;;;;;23.58;15.75;;;;;;;;;;10301382;28;20076;-56
2022/01/11 06:31:34;;;;;;;31.17;20.83;;;;;;;;;;10315051;28;20076;-55
2022/01/11 06:36:33;;;;;;;25.23;17.75;;;;;;;;;;10313178;28;20457;-57
2022/01/11 06:41:35;;;;;;;26.45;19.15;;;;;;;;;;10313770;28;20083;-57
2022/01/11 06:46:37;;;;;;;;;;;;;;;;;;10316885;28;20056;-54
2022/01/11 06:51:36;;;;;;;23.20;16.73;;;;;;;;;;10313482;28;19932;-56
2022/01/11 06:56:36;;;;;;;45.35;32.00;;;;;;;;;;10312075;28;20395;-56
2022/01/11 07:01:39;;;;;;;23.98;15.73;;;;;;;;;;10308259;28;20091;-53
2022/01/11 07:06:47;;;;;;;25.05;17.80;;;;;;;;;;10310190;28;20583;-55
2022/01/11 07:11:49;;;;;;;29.80;18.60;;;;;;;;;;10311528;28;20090;-56
2022/01/11 07:16:48;;;;;;;26.65;16.10;;;;;;;;;;10316714;28;20068;-55
2022/01/11 07:21:48;;;;;;;21.15;15.80;;;;;;;;;;10315155;28;20075;-55
2022/01/11 07:26:48;;;;;;;23.98;18.40;;;;;;;;;;10315624;28;20051;-57
2022/01/11 07:31:48;;;;;;;21.13;16.30;;;;;;;;;;10315033;28;20056;-56
2022/01/11 07:36:48;;;;;;;25.67;18.13;;;;;;;;;;10315204;28;20056;-55
2022/01/11 07:41:47;;;;;;;26.13;18.02;;;;;;;;;;10314509;28;20103;-56
2022/01/11 07:47:06;;;;;;;22.00;15.27;;;;;;;;;;10328471;28;20056;-58
2022/01/11 07:52:09;;;;;;;22.70;15.03;;;;;;;;;;10315573;28;20399;-59
2022/01/11 07:57:08;;;;;;;20.83;14.25;;;;;;;;;;10314341;28;20036;-55
2022/01/11 08:02:09;;;;;;;21.80;14.88;;;;;;;;;;10314195;28;20094;-53
2022/01/11 08:07:09;;;;;;;23.95;17.17;;;;;;;;;;10315481;28;20544;-56
2022/01/11 08:12:18;;;;;;;19.95;14.50;;;;;;;;;;10314000;28;20056;-56
2022/01/11 08:17:18;;;;;;;17.30;14.10;;;;;;;;;;10314100;28;20045;-54
2022/01/11 08:22:16;;;;;;;24.50;16.15;;;;;;;;;;10314001;28;20059;-56
2022/01/11 08:27:22;;;;;;;23.77;20.23;;;;;;;;;;10313762;28;20524;-55
2022/01/11 08:32:24;;;;;;;19.95;16.27;;;;;;;;;;10314384;28;20049;-54
2022/01/11 08:37:23;;;;;;;23.38;14.02;;;;;;;;;;10313400;28;20131;-55
2022/01/11 08:42:22;;;;;;;16.13;12.57;;;;;;;;;;10313207;28;20110;-55
2022/01/11 08:47:20;;;;;;;16.38;11.25;;;;;;;;;;10315740;28;20048;-56
2022/01/11 08:52:20;;;;;;;17.02;13.00;;;;;;;;;;10344501;28;20055;-55
2022/01/11 08:57:20;;;;;;;18.85;13.00;;;;;;;;;;10344606;28;20055;-55
2022/01/11 09:02:21;;;;;;;17.60;13.23;;;;;;;;;;10344544;28;20402;-54
2022/01/11 09:07:23;;;;;;;19.52;15.43;;;;;;;;;;10344474;28;20052;-57
2022/01/11 09:12:25;;;;;;;16.38;12.27;;;;;;;;;;10344330;28;20048;-55
2022/01/11 09:17:23;;;;;;;15.90;11.65;;;;;;;;;;10343640;28;20048;-57
2022/01/11 09:22:25;;;;;;;21.02;13.80;;;;;;;;;;10344296;28;20516;-56
2022/01/11 09:27:25;;;;;;;17.88;13.60;;;;;;;;;;10343616;28;20044;-56
2022/01/11 09:32:25;;;;;;;18.17;13.13;;;;;;;;;;10344243;28;20040;-55
2022/01/11 09:37:28;;;;;;;24.77;18.38;;;;;;;;;;10343070;28;20066;-57
2022/01/11 09:42:27;;;;;;;17.95;12.43;;;;;;;;;;10342557;28;20080;-56
2022/01/11 09:47:28;;;;;;;20.58;13.48;;;;;;;;;;10342097;28;20067;-57
2022/01/11 09:52:29;;;;;;;17.27;11.35;;;;;;;;;;10342331;28;20048;-55
2022/01/11 09:57:29;;;;;;;19.60;13.80;;;;;;;;;;10342011;28;20044;-55
2022/01/11 10:03:05;;;;;;;14.60;11.18;;;;;;;;;;10358281;28;20159;-54
2022/01/11 10:08:22;;;;;;;22.40;15.25;;;;;;;;;;10341438;28;20067;-57
2022/01/11 10:13:33;;;;;;;21.60;15.60;;;;;;;;;;10340541;28;20048;-55
2022/01/11 10:18:36;;;;;;;19.80;11.73;;;;;;;;;;10340694;28;20429;-56
2022/01/11 10:23:40;;;;;;;15.35;12.05;;;;;;;;;;10340573;28;20056;-54
2022/01/11 10:28:38;;;;;;;20.33;13.00;;;;;;;;;;10340096;28;20067;-55
2022/01/11 10:33:38;;;;;;;22.45;14.40;;;;;;;;;;10340244;28;20071;-57
2022/01/11 10:38:37;;;;;;;19.00;12.77;;;;;;;;;;10339899;28;20055;-54
2022/01/11 10:43:48;;;;;;;16.23;11.73;;;;;;;;;;10340440;28;20499;-54
2022/01/11 10:48:53;;;;;;;17.10;12.52;;;;;;;;;;10339390;28;20083;-53
2022/01/11 10:53:51;;;;;;;14.60;11.98;;;;;;;;;;10339518;28;20417;-55
2022/01/11 10:59:06;;;;;;;16.35;10.63;;;;;;;;;;10339481;28;20055;-55
2022/01/11 11:04:05;;;;;;;14.70;10.20;;;;;;;;;;10338750;28;20464;-54
2022/01/11 11:09:17;;;;;;;13.65;11.27;;;;;;;;;;10337952;28;20044;-56
2022/01/11 11:14:44;;;;;;;16.17;10.77;;;;;;;;;;10338044;28;20056;-56
2022/01/11 11:19:56;;;;;;;36.50;22.90;;;;;;;;;;10338543;28;20422;-55
2022/01/11 11:24:55;;;;;;;22.10;17.05;;;;;;;;;;10336992;28;20097;-56
2022/01/11 11:29:53;;;;;;;16.63;13.05;;;;;;;;;;10356737;28;20048;-56
2022/01/11 11:34:52;;;;;;;15.57;11.00;;;;;;;;;;10356925;28;20058;-56
2022/01/11 11:39:55;;;;;;;19.67;14.70;;;;;;;;;;10355671;28;20052;-56
2022/01/11 11:44:53;;;;;;;18.30;11.95;;;;;;;;;;10356321;28;20453;-56
2022/01/11 11:49:53;;;;;;;17.58;11.95;;;;;;;;;;10354826;28;20060;-55
2022/01/11 11:54:52;;;;;;;18.88;13.68;;;;;;;;;;10355386;28;20047;-56
2022/01/11 11:59:52;;;;;;;17.08;12.68;;;;;;;;;;10355323;28;20072;-56
2022/01/11 12:04:52;;;;;;;26.35;17.45;;;;;;;;;;10354944;28;20080;-56
2022/01/11 12:09:51;;;;;;;22.85;14.63;;;;;;;;;;10354202;28;20048;-56
2022/01/11 12:14:50;;;;;;;22.63;17.80;;;;;;;;;;10355982;28;20040;-57
2022/01/11 12:19:50;;;;;;;21.42;15.52;;;;;;;;;;10356657;28;20075;-56
2022/01/11 12:24:54;;;;;;;23.80;17.25;;;;;;;;;;10340941;28;20524;-54
2022/01/11 12:29:53;;;;;;;26.83;18.83;;;;;;;;;;10363122;28;20310;-58
2022/01/11 12:34:57;;;;;;;19.42;14.77;;;;;;;;;;10364397;28;20036;-57
2022/01/11 12:40:13;;;;;;;24.73;15.63;;;;;;;;;;10363893;28;20560;-57
2022/01/11 12:50:29;;;;;;;23.88;17.08;;;;;;;;;;10360025;28;20083;-56
2022/01/11 12:55:27;;;;;;;37.60;24.10;;;;;;;;;;10359763;28;20071;-57
2022/01/11 13:00:25;;;;;;;30.83;18.00;;;;;;;;;;10362833;28;20071;-57
2022/01/11 13:05:27;;;;;;;22.17;15.00;;;;;;;;;;10362345;28;20086;-57
2022/01/11 13:10:30;;;;;;;19.88;14.15;;;;;;;;;;10360541;28;20071;-56
2022/01/11 13:15:34;;;;;;;22.67;14.93;;;;;;;;;;10357489;28;20075;-55
2022/01/11 13:20:33;;;;;;;19.38;14.52;;;;;;;;;;10357180;28;20481;-56
2022/01/11 13:25:36;;;;;;;25.83;14.00;;;;;;;;;;10356978;28;20539;-56
2022/01/11 13:30:35;;;;;;;13.05;10.60;;;;;;;;;;10361635;28;20043;-56
2022/01/11 13:35:34;;;;;;;21.50;13.90;;;;;;;;;;10361494;28;20062;-57
2022/01/11 13:40:32;;;;;;;15.55;10.43;;;;;;;;;;10361811;28;20063;-57
2022/01/11 13:45:36;;;;;;;15.98;11.00;;;;;;;;;;10357327;28;20068;-57
2022/01/11 13:50:46;;;;;;;14.50;11.55;;;;;;;;;;10343613;28;20169;-57
2022/01/11 13:55:44;;;;;;;14.80;10.25;;;;;;;;;;10358070;28;20040;-55
2022/01/11 14:00:44;;;;;;;17.98;12.57;;;;;;;;;;10360436;28;20475;-55
2022/01/11 14:05:42;;;;;;;48.05;29.92;;;;;;;;;;10333709;28;20465;-56
2022/01/11 14:10:52;;;;;;;18.45;14.02;;;;;;;;;;10316602;28;20044;-55
2022/01/11 14:15:52;;;;;;;20.17;14.15;;;;;;;;;;10318035;28;20091;-58
2022/01/11 14:21:03;;;;;;;21.70;14.02;;;;;;;;;;10319779;28;20091;-56
2022/01/11 14:26:02;;;;;;;17.10;12.90;;;;;;;;;;10319956;28;20071;-54
2022/01/11 14:31:02;;;;;;;16.50;12.80;;;;;;;;;;10318557;28;20064;-58
2022/01/11 14:36:01;;;;;;;13.82;10.88;;;;;;;;;;10318941;28;20071;-57
2022/01/11 14:41:00;;;;;;;16.17;11.13;;;;;;;;;;10319039;28;20052;-56
2022/01/11 14:46:00;;;;;;;21.38;14.95;;;;;;;;;;10318379;28;20076;-55
2022/01/11 14:51:00;;;;;;;15.52;10.98;;;;;;;;;;10318152;28;20045;-55
2022/01/11 14:55:58;;;;;;;17.20;11.80;;;;;;;;;;10318007;28;20048;-55
2022/01/11 15:00:58;;;;;;;22.73;15.88;;;;;;;;;;10317945;28;20536;-57
2022/01/11 15:06:05;;;;;;;24.83;16.10;;;;;;;;;;10316829;28;20075;-55
2022/01/11 15:11:05;;;;;;;23.45;15.52;;;;;;;;;;10318423;28;20079;-59
2022/01/11 15:16:03;;;;;;;30.35;20.58;;;;;;;;;;10317545;28;20048;-57
2022/01/11 15:21:02;;;;;;;23.40;15.30;;;;;;;;;;10316360;28;20445;-56
2022/01/11 15:26:02;;;;;;;21.05;14.73;;;;;;;;;;10316348;28;20087;-57
2022/01/11 15:31:00;;;;;;;23.58;15.50;;;;;;;;;;10315655;28;20044;-56
2022/01/11 15:35:59;;;;;;;21.30;14.30;;;;;;;;;;10314073;28;20498;-58
2022/01/11 15:40:59;;;;;;;24.80;16.92;;;;;;;;;;10316723;28;20071;-56
2022/01/11 15:45:59;;;;;;;31.15;18.85;;;;;;;;;;10314974;28;20084;-56
2022/01/11 15:50:58;;;;;;;45.95;25.10;;;;;;;;;;10316530;28;20087;-56
2022/01/11 15:55:58;;;;;;;75.57;35.80;;;;;;;;;;10316155;28;20513;-55
2022/01/11 16:00:56;;;;;;;57.05;30.05;;;;;;;;;;10312439;28;20048;-58
2022/01/11 16:05:56;;;;;;;43.05;23.55;;;;;;;;;;10316566;28;20088;-57
2022/01/11 16:10:55;;;;;;;32.22;20.77;;;;;;;;;;10315240;28;20044;-57
2022/01/11 16:15:53;;;;;;;24.77;16.75;;;;;;;;;;10314419;28;20052;-58
2022/01/11 16:20:52;;;;;;;29.95;18.25;;;;;;;;;;10316234;28;20395;-56
2022/01/11 16:25:52;;;;;;;51.90;31.98;;;;;;;;;;10315719;28;20076;-57
2022/01/11 16:30:51;;;;;;;24.60;16.42;;;;;;;;;;10316272;28;20053;-56
2022/01/11 16:35:53;;;;;;;70.43;36.95;;;;;;;;;;10316004;28;20091;-57
2022/01/11 16:46:08;;;;;;;32.58;18.70;;;;;;;;;;10315202;28;20411;-57
2022/01/11 16:51:09;;;;;;;27.13;17.80;;;;;;;;;;10314889;28;20506;-56
2022/01/11 16:56:08;;;;;;;30.10;19.23;;;;;;;;;;10315537;28;20052;-56
2022/01/11 17:01:07;;;;;;;41.33;23.85;;;;;;;;;;10314827;28;20040;-56
2022/01/11 17:06:05;;;;;;;25.92;16.95;;;;;;;;;;10312644;28;20088;-55
2022/01/11 17:11:04;;;;;;;17.70;13.20;;;;;;;;;;10314782;28;20297;-56
2022/01/11 17:16:03;;;;;;;25.20;14.65;;;;;;;;;;10321616;28;20083;-57
2022/01/11 17:21:02;;;;;;;26.67;15.23;;;;;;;;;;10321876;28;20064;-56
2022/01/11 17:26:00;;;;;;;13.75;10.93;;;;;;;;;;10321865;28;20453;-57
2022/01/11 17:30:59;;;;;;;26.10;16.98;;;;;;;;;;10319992;28;20036;-57
2022/01/11 17:35:59;;;;;;;24.73;15.00;;;;;;;;;;10318855;28;20072;-57
2022/01/11 17:40:57;;;;;;;18.60;13.00;;;;;;;;;;10320088;28;20067;-58
2022/01/11 17:45:57;;;;;;;30.67;18.38;;;;;;;;;;10319343;28;20080;-57
2022/01/11 17:50:55;;;;;;;20.30;13.50;;;;;;;;;;10319003;28;20092;-58
2022/01/11 17:55:55;;;;;;;24.55;15.57;;;;;;;;;;10319288;28;20470;-57
2022/01/11 18:00:53;;;;;;;18.65;12.70;;;;;;;;;;10320020;28;20163;-55
2022/01/11 18:05:52;;;;;;;16.85;11.55;;;;;;;;;;10319611;28;20087;-55
2022/01/11 18:10:50;;;;;;;24.20;14.60;;;;;;;;;;10319719;28;20450;-58
2022/01/11 18:15:50;;;;;;;40.45;22.40;;;;;;;;;;10319792;28;20045;-58
2022/01/11 18:20:48;;;;;;;20.85;13.77;;;;;;;;;;10318275;28;20091;-56
2022/01/11 18:25:47;;;;;;;30.85;18.98;;;;;;;;;;10333426;28;20086;-56
2022/01/11 18:30:45;;;;;;;26.20;16.10;;;;;;;;;;10356658;28;20092;-53
2022/01/11 18:35:46;;;;;;;17.75;12.82;;;;;;;;;;10354049;28;20068;-57
2022/01/11 18:40:45;;;;;;;28.17;16.77;;;;;;;;;;10357452;28;20432;-54
2022/01/11 18:45:43;;;;;;;23.25;13.95;;;;;;;;;;10358921;28;20079;-54
2022/01/11 18:50:42;;;;;;;39.83;22.77;;;;;;;;;;10359804;28;20059;-56
2022/01/11 18:55:42;;;;;;;20.33;14.15;;;;;;;;;;10359341;28;20040;-56
2022/01/11 19:00:40;;;;;;;18.23;13.43;;;;;;;;;;10355558;28;20426;-53
2022/01/11 19:05:39;;;;;;;35.67;20.38;;;;;;;;;;10328867;28;20100;-55
2022/01/11 19:10:37;;;;;;;20.83;12.73;;;;;;;;;;10330590;28;20079;-55
2022/01/11 19:15:37;;;;;;;28.40;19.30;;;;;;;;;;10336321;28;20080;-53
2022/01/11 19:20:35;;;;;;;20.35;13.05;;;;;;;;;;10326604;28;20079;-55
2022/01/11 19:25:35;;;;;;;22.00;15.80;;;;;;;;;;10340272;28;20078;-56
2022/01/11 19:30:33;;;;;;;15.95;11.70;;;;;;;;;;10329232;28;20639;-55
2022/01/11 19:35:33;;;;;;;13.73;10.70;;;;;;;;;;10349992;28;20044;-53
2022/01/11 19:40:47;;;;;;;17.23;11.77;;;;;;;;;;10350941;28;20044;-57
2022/01/11 19:45:46;;;;;;;12.10;8.85;;;;;;;;;;10341448;28;20456;-56
2022/01/11 19:50:45;;;;;;;19.27;12.05;;;;;;;;;;10347322;28;20077;-55
2022/01/11 19:55:44;;;;;;;17.00;11.70;;;;;;;;;;10354901;28;20051;-56
2022/01/11 20:00:42;;;;;;;19.75;12.20;;;;;;;;;;10351182;28;20056;-55
2022/01/11 20:05:43;;;;;;;17.38;10.88;;;;;;;;;;10329887;28;20543;-56
2022/01/11 20:10:43;;;;;;;14.93;10.35;;;;;;;;;;10336726;28;20036;-53
2022/01/11 20:15:41;;;;;;;16.30;11.10;;;;;;;;;;10320682;28;20072;-56
2022/01/11 20:20:45;;;;;;;20.08;12.23;;;;;;;;;;10353959;28;20508;-57
2022/01/11 20:31:03;;;;;;;18.48;11.75;;;;;;;;;;10315855;28;20045;-54
2022/01/11 20:36:02;;;;;;;12.25;9.90;;;;;;;;;;10332426;28;20072;-52
2022/01/11 20:41:03;;;;;;;17.08;10.98;;;;;;;;;;10348125;28;20487;-55
2022/01/11 20:46:01;;;;;;;9.73;7.63;;;;;;;;;;10351665;28;20087;-55
2022/01/11 20:51:08;;;;;;;9.25;7.65;;;;;;;;;;10352656;28;20049;-54
2022/01/11 20:56:14;;;;;;;13.82;9.95;;;;;;;;;;10322955;28;20052;-55
2022/01/11 21:01:13;;;;;;;13.82;9.70;;;;;;;;;;10324734;28;20067;-52
2022/01/11 21:06:12;;;;;;;12.38;9.40;;;;;;;;;;10350588;28;20075;-53
2022/01/11 21:11:12;;;;;;;18.45;11.77;;;;;;;;;;10351611;28;20099;-56
2022/01/11 21:21:31;;;;;;;20.08;11.90;;;;;;;;;;10321104;28;20041;-57
2022/01/11 21:26:31;;;;;;;36.70;17.83;;;;;;;;;;10356489;28;20075;-55
2022/01/11 21:31:29;;;;;;;19.42;12.25;;;;;;;;;;10362115;28;20063;-55
2022/01/11 21:36:28;;;;;;;27.55;17.35;;;;;;;;;;10335835;28;20106;-55
2022/01/11 21:41:26;;;;;;;18.17;9.75;;;;;;;;;;10320680;28;20524;-53
2022/01/11 21:46:26;;;;;;;31.63;15.13;;;;;;;;;;10334332;28;20087;-50
2022/01/11 21:51:25;;;;;;;29.58;16.48;;;;;;;;;;10340570;28;20086;-51
2022/01/11 21:56:24;;;;;;;22.65;12.68;;;;;;;;;;10330752;28;20068;-55
2022/01/11 22:01:22;;;;;;;15.98;10.07;;;;;;;;;;10331220;28;20076;-55
2022/01/11 22:06:22;;;;;;;13.65;9.23;;;;;;;;;;10320574;28;20076;-55
2022/01/11 22:11:21;;;;;;;17.42;12.10;;;;;;;;;;10320840;28;20499;-56
2022/01/11 22:16:28;;;;;;;19.10;12.25;;;;;;;;;;10325143;28;20064;-55
2022/01/11 22:21:28;;;;;;;16.70;11.07;;;;;;;;;;10360434;28;20044;-53
2022/01/11 22:26:26;;;;;;;19.63;11.30;;;;;;;;;;10360711;28;20519;-55
2022/01/11 22:31:24;;;;;;;18.67;11.70;;;;;;;;;;10360740;28;20068;-54
2022/01/11 22:36:23;;;;;;;12.75;9.80;;;;;;;;;;10360370;28;20040;-53
2022/01/11 22:41:22;;;;;;;16.88;11.10;;;;;;;;;;10359389;28;20102;-53
2022/01/11 22:46:20;;;;;;;15.30;10.68;;;;;;;;;;10360404;28;20087;-55
2022/01/11 22:51:19;;;;;;;12.60;9.65;;;;;;;;;;10339495;28;20075;-55
2022/01/11 22:56:17;;;;;;;12.48;8.68;;;;;;;;;;10324027;28;20066;-55
2022/01/11 23:01:18;;;;;;;15.82;10.57;;;;;;;;;;10331934;28;20044;-55
2022/01/11 23:06:16;;;;;;;12.02;9.52;;;;;;;;;;10341657;28;20086;-56
2022/01/11 23:11:16;;;;;;;20.05;13.05;;;;;;;;;;10343641;28;20080;-56
2022/01/11 23:16:14;;;;;;;12.02;9.15;;;;;;;;;;10333963;28;20049;-54
2022/01/11 23:21:14;;;;;;;13.15;10.05;;;;;;;;;;10317490;28;20457;-52
2022/01/11 23:26:13;;;;;;;11.70;8.75;;;;;;;;;;10327859;28;20497;-52
2022/01/11 23:31:11;;;;;;;12.45;8.68;;;;;;;;;;10330560;28;20036;-55
2022/01/11 23:36:12;;;;;;;18.20;10.20;;;;;;;;;;10316865;28;20049;-55
2022/01/11 23:41:17;;;;;;;15.75;8.80;;;;;;;;;;10316833;28;20049;-53
2022/01/11 23:46:15;;;;;;;16.17;10.67;;;;;;;;;;10317389;28;20079;-55
2022/01/11 23:51:15;;;;;;;10.35;8.30;;;;;;;;;;10316993;28;20052;-53
2022/01/11 23:56:15;;;;;;;9.20;7.95;;;;;;;;;;10316649;28;20048;-54
